Observation data for Northfield on 09/16/2019      Previous  Date  Next       Current Mesonet Observations  Soil Data  Daily Summary Page  Observations in Plain Language
KNOR 160500Z 15010KT 25/14 A3008 RMK A01 T02500136  RH  051%=      5-min Rain = 0
KNOR 160505Z 15010KT 25/14 A3008 RMK A01 T02500135  RH  051%=      5-min Rain = 0
KNOR 160510Z 15010KT 25/14 A3008 RMK A01 T02500135  RH  051%=      5-min Rain = 0
KNOR 160515Z 15010KT 25/14 A3008 RMK A01 T02480136  RH  052%=      5-min Rain = 0
KNOR 160520Z 15009KT 25/14 A3008 RMK A01 T02480136  RH  052%=      5-min Rain = 0
KNOR 160525Z 15009KT 25/14 A3008 RMK A01 T02460136  RH  052%=      5-min Rain = 0
KNOR 160530Z 15010KT 25/14 A3008 RMK A01 T02460136  RH  053%=      5-min Rain = 0
KNOR 160535Z 15010KT 25/14 A3008 RMK A01 T02470135  RH  052%=      5-min Rain = 0
KNOR 160540Z 16010KT 25/14 A3008 RMK A01 T02480135  RH  052%=      5-min Rain = 0
KNOR 160545Z 16010KT 25/14 A3008 RMK A01 T02460136  RH  052%=      5-min Rain = 0
KNOR 160550Z 16010KT 24/14 A3008 RMK A01 T02440136  RH  053%=      5-min Rain = 0
KNOR 160555Z 16010KT 25/14 A3008 RMK A01 T02450135  RH  052%=      5-min Rain = 0
KNOR 160600Z 16010KT 24/14 A3008 RMK A01 T02430135  RH  053%=      5-min Rain = 0
KNOR 160605Z 16010KT 24/14 A3008 RMK A01 T02420135  RH  053%=      5-min Rain = 0
KNOR 160610Z 16010KT 24/14 A3008 RMK A01 T02430135  RH  053%=      5-min Rain = 0
KNOR 160615Z 16009KT 24/14 A3008 RMK A01 T02400136  RH  054%=      5-min Rain = 0
KNOR 160620Z 16010KT 24/14 A3008 RMK A01 T02380137  RH  055%=      5-min Rain = 0
KNOR 160625Z 16010KT 24/14 A3008 RMK A01 T02370137  RH  056%=      5-min Rain = 0
KNOR 160630Z 16010KT 24/14 A3009 RMK A01 T02360137  RH  056%=      5-min Rain = 0
KNOR 160635Z 17009KT 24/14 A3009 RMK A01 T02370137  RH  056%=      5-min Rain = 0
KNOR 160640Z 17010KT 24/14 A3009 RMK A01 T02370136  RH  055%=      5-min Rain = 0
KNOR 160645Z 17010KT 24/14 A3009 RMK A01 T02370135  RH  055%=      5-min Rain = 0
KNOR 160650Z 17010KT 24/14 A3009 RMK A01 T02360135  RH  055%=      5-min Rain = 0
KNOR 160655Z 17009KT 23/14 A3009 RMK A01 T02340135  RH  056%=      5-min Rain = 0
KNOR 160700Z 17009KT 24/14 A3009 RMK A01 T02360135  RH  056%=      5-min Rain = 0
KNOR 160705Z 17008KT 23/14 A3009 RMK A01 T02330136  RH  057%=      5-min Rain = 0
KNOR 160710Z 17008KT 23/14 A3009 RMK A01 T02310136  RH  058%=      5-min Rain = 0
KNOR 160715Z 17009KT 23/14 A3009 RMK A01 T02290136  RH  058%=      5-min Rain = 0
KNOR 160720Z 17008KT 23/14 A3009 RMK A01 T02290136  RH  058%=      5-min Rain = 0
KNOR 160725Z 17009KT 23/14 A3009 RMK A01 T02290136  RH  058%=      5-min Rain = 0
KNOR 160730Z 17009KT 23/14 A3009 RMK A01 T02290136  RH  058%=      5-min Rain = 0
KNOR 160735Z 17008KT 23/14 A3009 RMK A01 T02280136  RH  058%=      5-min Rain = 0
KNOR 160740Z 17008KT 23/14 A3009 RMK A01 T02270136  RH  059%=      5-min Rain = 0
KNOR 160745Z 16009KT 23/14 A3009 RMK A01 T02270136  RH  059%=      5-min Rain = 0
KNOR 160750Z 17009KT 22/14 A301 RMK A01 T02240136  RH  060%=      5-min Rain = 0
KNOR 160755Z 17008KT 22/14 A3009 RMK A01 T02240136  RH  060%=      5-min Rain = 0
KNOR 160800Z 17009KT 22/14 A301 RMK A01 T02220137  RH  061%=      5-min Rain = 0
KNOR 160805Z 17009KT 23/14 A301 RMK A01 T02250135  RH  059%=      5-min Rain = 0
KNOR 160810Z 17009KT 23/14 A301 RMK A01 T02250135  RH  059%=      5-min Rain = 0
KNOR 160815Z 17008KT 22/14 A301 RMK A01 T02240136  RH  060%=      5-min Rain = 0
KNOR 160820Z 17009KT 22/14 A301 RMK A01 T02240135  RH  060%=      5-min Rain = 0
KNOR 160825Z 17008KT 22/14 A301 RMK A01 T02240135  RH  059%=      5-min Rain = 0
KNOR 160830Z 17009KT 22/14 A301 RMK A01 T02240135  RH  059%=      5-min Rain = 0
KNOR 160835Z 18009KT 23/13 A3009 RMK A01 T02250134  RH  059%=      5-min Rain = 0
KNOR 160840Z 18009KT 22/13 A3009 RMK A01 T02240134  RH  059%=      5-min Rain = 0
KNOR 160845Z 17008KT 22/13 A3009 RMK A01 T02240134  RH  059%=      5-min Rain = 0
KNOR 160850Z 17008KT 22/13 A3009 RMK A01 T02230134  RH  060%=      5-min Rain = 0
KNOR 160855Z 17008KT 22/13 A3009 RMK A01 T02220134  RH  060%=      5-min Rain = 0
KNOR 160900Z 17008KT 22/13 A3008 RMK A01 T02210134  RH  060%=      5-min Rain = 0
KNOR 160905Z 17008KT 22/13 A3008 RMK A01 T02200134  RH  061%=      5-min Rain = 0
KNOR 160910Z 17008KT 22/13 A3009 RMK A01 T02220133  RH  059%=      5-min Rain = 0
KNOR 160915Z 17008KT 22/13 A3009 RMK A01 T02230133  RH  059%=      5-min Rain = 0
KNOR 160920Z 17009KT 22/13 A3009 RMK A01 T02230133  RH  059%=      5-min Rain = 0
KNOR 160925Z 18007KT 22/13 A3008 RMK A01 T02210133  RH  060%=      5-min Rain = 0
KNOR 160930Z 18007KT 22/13 A3008 RMK A01 T02180133  RH  061%=      5-min Rain = 0
KNOR 160935Z 18007KT 22/13 A3008 RMK A01 T02170133  RH  061%=      5-min Rain = 0
KNOR 160940Z 18007KT 22/13 A3008 RMK A01 T02160133  RH  062%=      5-min Rain = 0
KNOR 160945Z 17007KT 21/13 A3008 RMK A01 T02140133  RH  062%=      5-min Rain = 0
KNOR 160950Z 17007KT 21/13 A3008 RMK A01 T02140134  RH  063%=      5-min Rain = 0
KNOR 160955Z 17007KT 21/13 A3008 RMK A01 T02140133  RH  062%=      5-min Rain = 0
KNOR 161000Z 17007KT 21/13 A3008 RMK A01 T02140133  RH  062%=      5-min Rain = 0
KNOR 161005Z 18007KT 22/13 A3008 RMK A01 T02150132  RH  062%=      5-min Rain = 0
KNOR 161010Z 18007KT 22/13 A3008 RMK A01 T02150131  RH  061%=      5-min Rain = 0
KNOR 161015Z 17007KT 22/13 A3008 RMK A01 T02150132  RH  061%=      5-min Rain = 0
KNOR 161020Z 17009KT 22/13 A3008 RMK A01 T02160132  RH  061%=      5-min Rain = 0
KNOR 161025Z 17009KT 22/13 A3008 RMK A01 T02180131  RH  060%=      5-min Rain = 0
KNOR 161030Z 17009KT 22/13 A3008 RMK A01 T02200131  RH  059%=      5-min Rain = 0
KNOR 161035Z 18008KT 22/13 A3008 RMK A01 T02200131  RH  059%=      5-min Rain = 0
KNOR 161040Z 18007KT 22/13 A3008 RMK A01 T02190131  RH  060%=      5-min Rain = 0
KNOR 161045Z 17008KT 22/13 A3009 RMK A01 T02160132  RH  061%=      5-min Rain = 0
KNOR 161050Z 18008KT 22/13 A3009 RMK A01 T02160132  RH  061%=      5-min Rain = 0
KNOR 161055Z 18008KT 21/13 A3009 RMK A01 T02140132  RH  062%=      5-min Rain = 0
KNOR 161100Z 17008KT 21/13 A3008 RMK A01 T02130133  RH  063%=      5-min Rain = 0
KNOR 161105Z 17009KT 21/13 A3008 RMK A01 T02140133  RH  062%=      5-min Rain = 0
KNOR 161110Z 17008KT 22/13 A3008 RMK A01 T02150132  RH  062%=      5-min Rain = 0
KNOR 161115Z 17008KT 21/13 A3008 RMK A01 T02140133  RH  062%=      5-min Rain = 0
KNOR 161120Z 18008KT 21/13 A3008 RMK A01 T02130133  RH  063%=      5-min Rain = 0
KNOR 161125Z 18008KT 21/13 A3008 RMK A01 T02130133  RH  063%=      5-min Rain = 0
KNOR 161130Z 18008KT 21/13 A3008 RMK A01 T02120134  RH  064%=      5-min Rain = 0
KNOR 161135Z 17007KT 21/13 A3008 RMK A01 T02110134  RH  064%=      5-min Rain = 0
KNOR 161140Z 18007KT 21/13 A3009 RMK A01 T02110134  RH  064%=      5-min Rain = 0
KNOR 161145Z 18006KT 21/13 A3009 RMK A01 T02100134  RH  065%=      5-min Rain = 0
KNOR 161150Z 19005KT 21/14 A3009 RMK A01 T02060135  RH  066%=      5-min Rain = 0
KNOR 161155Z 24003KT 20/14 A3009 RMK A01 T01990135  RH  069%=      5-min Rain = 0
KNOR 161200Z 24003KT 19/14 A3009 RMK A01 T01940136  RH  072%=      5-min Rain = 0
KNOR 161205Z 22003KT 20/14 A3009 RMK A01 T01980136  RH  070%=      5-min Rain = 0
KNOR 161210Z 21003KT 20/14 A3009 RMK A01 T02000136  RH  070%=      5-min Rain = 0
KNOR 161215Z 23004KT 20/14 A3009 RMK A01 T01990136  RH  070%=      5-min Rain = 0
KNOR 161220Z 23004KT 20/14 A3009 RMK A01 T02000136  RH  069%=      5-min Rain = 0
KNOR 161225Z 22004KT 21/14 A301 RMK A01 T02050136  RH  067%=      5-min Rain = 0
KNOR 161230Z 22004KT 20/14 A301 RMK A01 T02030136  RH  068%=      5-min Rain = 0
KNOR 161235Z 21004KT 20/14 A301 RMK A01 T02040136  RH  067%=      5-min Rain = 0
KNOR 161240Z 23004KT 20/14 A301 RMK A01 T02030136  RH  068%=      5-min Rain = 0
KNOR 161245Z 24003KT 20/14 A301 RMK A01 T02000137  RH  070%=      5-min Rain = 0
KNOR 161250Z 26002KT 20/14 A3011 RMK A01 T01970139  RH  072%=      5-min Rain = 0
KNOR 161255Z 23001KT 20/14 A3011 RMK A01 T02000138  RH  070%=      5-min Rain = 0
KNOR 161300Z 17001KT 21/14 A3011 RMK A01 T02050140  RH  069%=      5-min Rain = 0
KNOR 161305Z 20000KT 21/14 A3011 RMK A01 T02050143  RH  070%=      5-min Rain = 0
KNOR 161310Z 16001KT 21/14 A3011 RMK A01 T02100143  RH  068%=      5-min Rain = 0
KNOR 161315Z 14003KT 21/14 A3011 RMK A01 T02140143  RH  067%=      5-min Rain = 0
KNOR 161320Z 15002KT 22/14 A3012 RMK A01 T02200139  RH  063%=      5-min Rain = 0
KNOR 161325Z 14003KT 22/14 A3012 RMK A01 T02200140  RH  063%=      5-min Rain = 0
KNOR 161330Z 13003KT 22/14 A3012 RMK A01 T02190141  RH  064%=      5-min Rain = 0
KNOR 161335Z 12003KT 22/14 A3012 RMK A01 T02200142  RH  064%=      5-min Rain = 0
KNOR 161340Z 12003KT 22/14 A3012 RMK A01 T02240143  RH  063%=      5-min Rain = 0
KNOR 161345Z 13004KT 23/14 A3012 RMK A01 T02280142  RH  061%=      5-min Rain = 0
KNOR 161350Z 13004KT 23/14 A3012 RMK A01 T02300142  RH  060%=      5-min Rain = 0
KNOR 161355Z 15003KT 23/14 A3012 RMK A01 T02340142  RH  059%=      5-min Rain = 0
KNOR 161400Z 16005KT 24/14 A3012 RMK A01 T02370141  RH  057%=      5-min Rain = 0
KNOR 161405Z 16005KT 24/14 A3012 RMK A01 T02390142  RH  057%=      5-min Rain = 0
KNOR 161410Z 17004KT 24/14 A3012 RMK A01 T02420141  RH  055%=      5-min Rain = 0
KNOR 161415Z 17005KT 24/14 A3012 RMK A01 T02430141  RH  055%=      5-min Rain = 0
KNOR 161420Z 17004KT 25/14 A3012 RMK A01 T02490142  RH  054%=      5-min Rain = 0
KNOR 161425Z 18004KT 26/14 A3012 RMK A01 T02560141  RH  051%=      5-min Rain = 0
KNOR 161430Z 18005KT 26/14 A3011 RMK A01 T02580138  RH  050%=      5-min Rain = 0
KNOR 161435Z 19005KT 26/14 A3011 RMK A01 T02570139  RH  050%=      5-min Rain = 0
KNOR 161440Z 18005KT 26/14 A3011 RMK A01 T02610140  RH  049%=      5-min Rain = 0
KNOR 161445Z 19005KT 26/14 A3011 RMK A01 T02620140  RH  049%=      5-min Rain = 0
KNOR 161450Z 21005KT 27/14 A3011 RMK A01 T02660140  RH  048%=      5-min Rain = 0
KNOR 161455Z 20005KT 27/14 A3011 RMK A01 T02650141  RH  048%=      5-min Rain = 0
KNOR 161500Z 21005KT 27/14 A3011 RMK A01 T02690142  RH  048%=      5-min Rain = 0
KNOR 161505Z 20006KT 27/14 A3011 RMK A01 T02710143  RH  047%=      5-min Rain = 0
KNOR 161510Z 20005KT 28/15 A3011 RMK A01 T02770145  RH  046%=      5-min Rain = 0
KNOR 161515Z 20007KT 28/14 A3012 RMK A01 T02800144  RH  045%=      5-min Rain = 0
KNOR 161520Z 20008KT 28/14 A3012 RMK A01 T02810144  RH  045%=      5-min Rain = 0
KNOR 161525Z 20005KT 28/14 A3012 RMK A01 T02820144  RH  045%=      5-min Rain = 0
KNOR 161530Z 21006KT 29/15 A3012 RMK A01 T02850145  RH  044%=      5-min Rain = 0
KNOR 161535Z 20006KT 29/14 A3012 RMK A01 T02900144  RH  043%=      5-min Rain = 0
KNOR 161540Z 20006KT 29/15 A3011 RMK A01 T02940145  RH  042%=      5-min Rain = 0
KNOR 161545Z 21006KT 30/15 A3011 RMK A01 T02960145  RH  041%=      5-min Rain = 0
KNOR 161550Z 21006KT 30/15 A3011 RMK A01 T02990145  RH  041%=      5-min Rain = 0
KNOR 161555Z 20006G11KT 30/14 A3011 RMK A01 T02990143  RH  040%=      5-min Rain = 0
KNOR 161600Z 20006KT 30/15 A3011 RMK A01 T03030145  RH  040%=      5-min Rain = 0
KNOR 161605Z 19005KT 31/15 A3011 RMK A01 T03050148  RH  040%=      5-min Rain = 0
KNOR 161610Z 19006G12KT 31/15 A3011 RMK A01 T03080147  RH  039%=      5-min Rain = 0
KNOR 161615Z 19007KT 31/15 A3011 RMK A01 T03100146  RH  038%=      5-min Rain = 0
KNOR 161620Z 20006G11KT 31/15 A3011 RMK A01 T03090147  RH  039%=      5-min Rain = 0
KNOR 161625Z 19004G9KT 31/15 A3011 RMK A01 T03090145  RH  039%=      5-min Rain = 0
KNOR 161630Z 19007KT 32/15 A3011 RMK A01 T03150147  RH  038%=      5-min Rain = 0
KNOR 161635Z 21006KT 31/15 A301 RMK A01 T03140146  RH  038%=      5-min Rain = 0
KNOR 161640Z 20006KT 31/14 A301 RMK A01 T03100142  RH  037%=      5-min Rain = 0
KNOR 161645Z 20005G11KT 31/14 A301 RMK A01 T03100141  RH  037%=      5-min Rain = 0
KNOR 161650Z 19006KT 32/14 A301 RMK A01 T03190140  RH  035%=      5-min Rain = 0
KNOR 161655Z 20006G13KT 32/14 A301 RMK A01 T03210141  RH  035%=      5-min Rain = 0
KNOR 161700Z 17007G12KT 32/14 A3009 RMK A01 T03220140  RH  035%=      5-min Rain = 0
KNOR 161705Z 17007KT 32/14 A3009 RMK A01 T03190138  RH  035%=      5-min Rain = 0
KNOR 161710Z 16007G13KT 32/14 A3009 RMK A01 T03180138  RH  035%=      5-min Rain = 0
KNOR 161715Z 16007G15KT 32/14 A3009 RMK A01 T03200137  RH  034%=      5-min Rain = 0
KNOR 161720Z 15007KT 31/14 A3009 RMK A01 T03140136  RH  035%=      5-min Rain = 0
KNOR 161725Z 18009KT 32/14 A3009 RMK A01 T03210139  RH  034%=      5-min Rain = 0
KNOR 161730Z 19008KT 32/14 A3008 RMK A01 T03180137  RH  035%=      5-min Rain = 0
KNOR 161735Z 21007KT 32/14 A3008 RMK A01 T03170139  RH  035%=      5-min Rain = 0
KNOR 161740Z 19008G13KT 32/14 A3008 RMK A01 T03230138  RH  034%=      5-min Rain = 0
KNOR 161745Z 18009KT 32/13 A3008 RMK A01 T03190134  RH  034%=      5-min Rain = 0
KNOR 161750Z 15005G11KT 32/14 A3008 RMK A01 T03170135  RH  034%=      5-min Rain = 0
KNOR 161755Z 18009G15KT 32/14 A3008 RMK A01 T03220138  RH  034%=      5-min Rain = 0
KNOR 161800Z 20003G9KT 33/13 A3008 RMK A01 T03250134  RH  033%=      5-min Rain = 0
KNOR 161805Z 18005G11KT 32/13 A3007 RMK A01 T03180134  RH  034%=      5-min Rain = 0
KNOR 161810Z 18004KT 31/14 A3007 RMK A01 T03110135  RH  036%=      5-min Rain = 0
KNOR 161815Z 24004G10KT 32/14 A3007 RMK A01 T03180135  RH  034%=      5-min Rain = 0
KNOR 161820Z 23007KT 32/14 A3007 RMK A01 T03220136  RH  034%=      5-min Rain = 0
KNOR 161825Z 16011G17KT 33/14 A3006 RMK A01 T03300136  RH  032%=      5-min Rain = 0
KNOR 161830Z 17008KT 33/13 A3007 RMK A01 T03290133  RH  032%=      5-min Rain = 0
KNOR 161835Z 16005KT 32/13 A3006 RMK A01 T03230132  RH  033%=      5-min Rain = 0
KNOR 161840Z 14007G13KT 34/14 A3006 RMK A01 T03350138  RH  032%=      5-min Rain = 0
KNOR 161845Z 16010G17KT 33/14 A3006 RMK A01 T03330135  RH  031%=      5-min Rain = 0
KNOR 161850Z 17008G13KT 33/14 A3006 RMK A01 T03340135  RH  031%=      5-min Rain = 0
KNOR 161855Z 15011G18KT 34/13 A3006 RMK A01 T03360131  RH  030%=      5-min Rain = 0
KNOR 161900Z 15010G16KT 32/13 A3006 RMK A01 T03240129  RH  032%=      5-min Rain = 0
KNOR 161905Z 15005G10KT 33/13 A3006 RMK A01 T03290133  RH  032%=      5-min Rain = 0
KNOR 161910Z 16010KT 33/13 A3005 RMK A01 T03280131  RH  031%=      5-min Rain = 0
KNOR 161915Z 15009KT 32/13 A3005 RMK A01 T03240132  RH  032%=      5-min Rain = 0
KNOR 161920Z 16006G11KT 32/13 A3005 RMK A01 T03160129  RH  033%=      5-min Rain = 0
KNOR 161925Z 16004KT 32/13 A3005 RMK A01 T03160131  RH  034%=      5-min Rain = 0
KNOR 161930Z 16005G14KT 33/13 A3004 RMK A01 T03330133  RH  031%=      5-min Rain = 0
KNOR 161935Z 16012G17KT 34/13 A3004 RMK A01 T03350128  RH  030%=      5-min Rain = 0
KNOR 161940Z 16008G14KT 33/13 A3004 RMK A01 T03290130  RH  031%=      5-min Rain = 0
KNOR 161945Z 18008KT 34/13 A3004 RMK A01 T03360131  RH  030%=      5-min Rain = 0
KNOR 161950Z 18009KT 34/13 A3003 RMK A01 T03350129  RH  030%=      5-min Rain = 0
KNOR 161955Z 17008KT 33/13 A3003 RMK A01 T03300129  RH  031%=      5-min Rain = 0
KNOR 162000Z 17011G17KT 33/13 A3003 RMK A01 T03290127  RH  031%=      5-min Rain = 0
KNOR 162005Z 15009G14KT 32/12 A3003 RMK A01 T03220123  RH  031%=      5-min Rain = 0
KNOR 162010Z 14009G14KT 33/13 A3003 RMK A01 T03260127  RH  031%=      5-min Rain = 0
KNOR 162015Z 15006KT 32/13 A3003 RMK A01 T03170126  RH  032%=      5-min Rain = 0
KNOR 162020Z 17008G13KT 33/13 A3002 RMK A01 T03340130  RH  030%=      5-min Rain = 0
KNOR 162025Z 14012G17KT 34/13 A3002 RMK A01 T03360129  RH  030%=      5-min Rain = 0
KNOR 162030Z 13009G14KT 32/13 A3002 RMK A01 T03190125  RH  032%=      5-min Rain = 0
KNOR 162035Z 16008KT 32/13 A3002 RMK A01 T03180126  RH  032%=      5-min Rain = 0
KNOR 162040Z 16006G12KT 32/13 A3002 RMK A01 T03200127  RH  032%=      5-min Rain = 0
KNOR 162045Z 14009G15KT 33/13 A3001 RMK A01 T03300125  RH  030%=      5-min Rain = 0
KNOR 162050Z 15008G13KT 32/12 A3001 RMK A01 T03200122  RH  031%=      5-min Rain = 0
KNOR 162055Z 12008G15KT 33/13 A3001 RMK A01 T03330125  RH  029%=      5-min Rain = 0
KNOR 162100Z 13011G16KT 34/12 A3001 RMK A01 T03410124  RH  028%=      5-min Rain = 0
KNOR 162105Z 13010G16KT 34/12 A3001 RMK A01 T03390124  RH  028%=      5-min Rain = 0
KNOR 162110Z 14010G15KT 34/12 A3001 RMK A01 T03360122  RH  028%=      5-min Rain = 0
KNOR 162115Z 14009KT 33/12 A3001 RMK A01 T03340119  RH  028%=      5-min Rain = 0
KNOR 162120Z 15010G16KT 34/12 A30 RMK A01 T03370119  RH  028%=      5-min Rain = 0
KNOR 162125Z 14009KT 34/12 A30 RMK A01 T03390119  RH  027%=      5-min Rain = 0
KNOR 162130Z 14010G16KT 34/12 A30 RMK A01 T03350119  RH  028%=      5-min Rain = 0
KNOR 162135Z 14014KT 34/12 A30 RMK A01 T03350118  RH  028%=      5-min Rain = 0
KNOR 162140Z 15009KT 34/12 A30 RMK A01 T03370118  RH  028%=      5-min Rain = 0
KNOR 162145Z 16010G15KT 34/12 A2999 RMK A01 T03400118  RH  027%=      5-min Rain = 0
KNOR 162150Z 17009KT 34/12 A2999 RMK A01 T03350116  RH  027%=      5-min Rain = 0
KNOR 162155Z 16007KT 34/12 A2999 RMK A01 T03370118  RH  028%=      5-min Rain = 0
KNOR 162200Z 16012G18KT 33/12 A2999 RMK A01 T03340119  RH  028%=      5-min Rain = 0
KNOR 162205Z 16012KT 33/12 A2999 RMK A01 T03260120  RH  030%=      5-min Rain = 0
KNOR 162210Z 15008KT 33/12 A2999 RMK A01 T03250122  RH  030%=      5-min Rain = 0
KNOR 162215Z 16010KT 32/12 A2999 RMK A01 T03230121  RH  030%=      5-min Rain = 0
KNOR 162220Z 14009G15KT 32/12 A2999 RMK A01 T03240122  RH  030%=      5-min Rain = 0
KNOR 162225Z 15010G15KT 33/12 A2999 RMK A01 T03320123  RH  029%=      5-min Rain = 0
KNOR 162230Z 15011G18KT 33/12 A2998 RMK A01 T03270121  RH  030%=      5-min Rain = 0
KNOR 162235Z 14011KT 32/12 A2998 RMK A01 T03220121  RH  031%=      5-min Rain = 0
KNOR 162240Z 15011G16KT 32/12 A2998 RMK A01 T03240124  RH  031%=      5-min Rain = 0
KNOR 162245Z 14011G16KT 33/12 A2998 RMK A01 T03250123  RH  030%=      5-min Rain = 0
KNOR 162250Z 16012G17KT 33/12 A2998 RMK A01 T03260123  RH  030%=      5-min Rain = 0
KNOR 162255Z 17012KT 33/12 A2998 RMK A01 T03290124  RH  030%=      5-min Rain = 0
KNOR 162300Z 16010G15KT 32/12 A2998 RMK A01 T03210124  RH  031%=      5-min Rain = 0
KNOR 162305Z 16007G12KT 32/13 A2998 RMK A01 T03230127  RH  032%=      5-min Rain = 0
KNOR 162310Z 15011G16KT 33/13 A2998 RMK A01 T03260126  RH  031%=      5-min Rain = 0
KNOR 162315Z 14013G18KT 33/12 A2998 RMK A01 T03300123  RH  030%=      5-min Rain = 0
KNOR 162320Z 13011KT 33/12 A2998 RMK A01 T03290124  RH  030%=      5-min Rain = 0
KNOR 162325Z 14012KT 32/12 A2998 RMK A01 T03240124  RH  031%=      5-min Rain = 0
KNOR 162330Z 16010KT 32/13 A2998 RMK A01 T03200125  RH  032%=      5-min Rain = 0
KNOR 162335Z 15010G17KT 32/12 A2998 RMK A01 T03220123  RH  031%=      5-min Rain = 0
KNOR 162340Z 15011G18KT 32/12 A2998 RMK A01 T03220122  RH  031%=      5-min Rain = 0
KNOR 162345Z 15011G17KT 32/12 A2998 RMK A01 T03210121  RH  031%=      5-min Rain = 0
KNOR 162350Z 15011KT 32/12 A2998 RMK A01 T03210121  RH  031%=      5-min Rain = 0
KNOR 162355Z 15010KT 32/12 A2998 RMK A01 T03190123  RH  031%=      5-min Rain = 0
KNOR 170000Z 15010KT 32/12 A2998 RMK A01 T03160123  RH  032%=      5-min Rain = 0
KNOR 170005Z 15011KT 31/12 A2998 RMK A01 T03130123  RH  032%=      5-min Rain = 0
KNOR 170010Z 15009KT 31/12 A2998 RMK A01 T03090124  RH  034%=      5-min Rain = 0
KNOR 170015Z 15007KT 31/13 A2998 RMK A01 T03050126  RH  035%=      5-min Rain = 0
KNOR 170020Z 15006KT 30/13 A2998 RMK A01 T03000128  RH  036%=      5-min Rain = 0
KNOR 170025Z 15007KT 30/13 A2998 RMK A01 T02970128  RH  037%=      5-min Rain = 0
KNOR 170030Z 15007KT 30/13 A2998 RMK A01 T02960129  RH  037%=      5-min Rain = 0
KNOR 170035Z 15007KT 30/13 A2998 RMK A01 T02950128  RH  037%=      5-min Rain = 0
KNOR 170040Z 15007KT 29/13 A2998 RMK A01 T02910129  RH  038%=      5-min Rain = 0
KNOR 170045Z 15006KT 29/13 A2998 RMK A01 T02860130  RH  040%=      5-min Rain = 0
KNOR 170050Z 15006KT 28/13 A2998 RMK A01 T02820131  RH  041%=      5-min Rain = 0
KNOR 170055Z 15007KT 28/13 A2998 RMK A01 T02800131  RH  042%=      5-min Rain = 0
KNOR 170100Z 15007KT 28/13 A2998 RMK A01 T02790131  RH  042%=      5-min Rain = 0
KNOR 170105Z 15007KT 28/13 A2998 RMK A01 T02780132  RH  042%=      5-min Rain = 0
KNOR 170110Z 14007KT 28/13 A2998 RMK A01 T02780132  RH  042%=      5-min Rain = 0
KNOR 170115Z 14007KT 28/13 A2998 RMK A01 T02750133  RH  043%=      5-min Rain = 0
KNOR 170120Z 15007KT 27/13 A2998 RMK A01 T02730134  RH  044%=      5-min Rain = 0
KNOR 170125Z 15007KT 27/13 A2998 RMK A01 T02720134  RH  044%=      5-min Rain = 0
KNOR 170130Z 15007KT 27/14 A2998 RMK A01 T02720135  RH  044%=      5-min Rain = 0
KNOR 170135Z 15008KT 27/14 A2998 RMK A01 T02720136  RH  045%=      5-min Rain = 0
KNOR 170140Z 15008KT 27/14 A2998 RMK A01 T02710136  RH  045%=      5-min Rain = 0
KNOR 170145Z 15008KT 27/14 A2998 RMK A01 T02720137  RH  045%=      5-min Rain = 0
KNOR 170150Z 15008KT 27/14 A2998 RMK A01 T02730137  RH  045%=      5-min Rain = 0
KNOR 170155Z 15008KT 27/14 A2998 RMK A01 T02730138  RH  045%=      5-min Rain = 0
KNOR 170200Z 15008KT 27/14 A2999 RMK A01 T02720139  RH  046%=      5-min Rain = 0
KNOR 170205Z 15007KT 27/14 A2999 RMK A01 T02700139  RH  047%=      5-min Rain = 0
KNOR 170210Z 15007KT 27/14 A2999 RMK A01 T02670140  RH  048%=      5-min Rain = 0
KNOR 170215Z 15007KT 26/14 A2999 RMK A01 T02640141  RH  049%=      5-min Rain = 0
KNOR 170220Z 14006KT 26/14 A2999 RMK A01 T02640141  RH  049%=      5-min Rain = 0
KNOR 170225Z 14007KT 26/14 A2999 RMK A01 T02630141  RH  049%=      5-min Rain = 0
KNOR 170230Z 14008KT 26/14 A2999 RMK A01 T02630142  RH  049%=      5-min Rain = 0
KNOR 170235Z 15007KT 26/14 A2999 RMK A01 T02630142  RH  049%=      5-min Rain = 0
KNOR 170240Z 15007KT 26/14 A2999 RMK A01 T02620142  RH  050%=      5-min Rain = 0
KNOR 170245Z 15007KT 26/14 A30 RMK A01 T02610142  RH  050%=      5-min Rain = 0
KNOR 170250Z 15008KT 26/14 A30 RMK A01 T02600142  RH  050%=      5-min Rain = 0
KNOR 170255Z 15008KT 26/14 A30 RMK A01 T02610141  RH  050%=      5-min Rain = 0
KNOR 170300Z 15008KT 26/14 A30 RMK A01 T02620141  RH  049%=      5-min Rain = 0
KNOR 170305Z 15008KT 26/14 A30 RMK A01 T02620140  RH  049%=      5-min Rain = 0
KNOR 170310Z 15008KT 26/14 A30 RMK A01 T02620141  RH  049%=      5-min Rain = 0
KNOR 170315Z 15009KT 26/14 A30 RMK A01 T02620141  RH  049%=      5-min Rain = 0
KNOR 170320Z 15009KT 26/14 A3001 RMK A01 T02620141  RH  049%=      5-min Rain = 0
KNOR 170325Z 15009KT 26/14 A3001 RMK A01 T02620142  RH  050%=      5-min Rain = 0
KNOR 170330Z 15009KT 26/14 A3001 RMK A01 T02610143  RH  050%=      5-min Rain = 0
KNOR 170335Z 15009KT 26/14 A3001 RMK A01 T02600143  RH  051%=      5-min Rain = 0
KNOR 170340Z 15009KT 26/14 A3001 RMK A01 T02600144  RH  051%=      5-min Rain = 0
KNOR 170345Z 15008KT 26/14 A3001 RMK A01 T02590144  RH  051%=      5-min Rain = 0
KNOR 170350Z 15009KT 26/15 A3001 RMK A01 T02590145  RH  052%=      5-min Rain = 0
KNOR 170355Z 15009KT 26/15 A3001 RMK A01 T02580145  RH  052%=      5-min Rain = 0
KNOR 170400Z 15009KT 26/15 A3001 RMK A01 T02570145  RH  052%=      5-min Rain = 0
KNOR 170405Z 15009KT 26/15 A3001 RMK A01 T02570146  RH  052%=      5-min Rain = 0
KNOR 170410Z 15009KT 26/15 A3001 RMK A01 T02560146  RH  053%=      5-min Rain = 0
KNOR 170415Z 15009KT 26/15 A3001 RMK A01 T02550146  RH  053%=      5-min Rain = 0
KNOR 170420Z 15009KT 26/15 A3001 RMK A01 T02550146  RH  053%=      5-min Rain = 0
KNOR 170425Z 15009KT 25/15 A3001 RMK A01 T02530147  RH  054%=      5-min Rain = 0
KNOR 170430Z 15008KT 25/15 A3001 RMK A01 T02520147  RH  054%=      5-min Rain = 0
KNOR 170435Z 15008KT 25/15 A3001 RMK A01 T02510147  RH  055%=      5-min Rain = 0
KNOR 170440Z 15008KT 25/15 A3001 RMK A01 T02490147  RH  056%=      5-min Rain = 0
KNOR 170445Z 15008KT 25/15 A3001 RMK A01 T02480148  RH  056%=      5-min Rain = 0
KNOR 170450Z 15008KT 25/15 A3001 RMK A01 T02470148  RH  057%=      5-min Rain = 0
KNOR 170455Z 15008KT 25/15 A3001 RMK A01 T02470148  RH  057%=      5-min Rain = 0

Page generated in 0.0088 seconds.